sensor_id;sensor_type;location;lat;lon;timestamp;P1;durP1;ratioP1;P2;durP2;ratioP2
62574;SDS011;53112;45.602;11.904;2022-10-22T00:00:28;31.80;;;18.85;;
62574;SDS011;53112;45.602;11.904;2022-10-22T00:02:54;30.60;;;18.05;;
62574;SDS011;53112;45.602;11.904;2022-10-22T00:05:20;26.23;;;17.63;;
62574;SDS011;53112;45.602;11.904;2022-10-22T00:07:46;25.20;;;16.30;;
62574;SDS011;53112;45.602;11.904;2022-10-22T00:10:11;26.17;;;16.77;;
62574;SDS011;53112;45.602;11.904;2022-10-22T00:12:38;25.30;;;16.63;;
62574;SDS011;53112;45.602;11.904;2022-10-22T00:15:04;26.55;;;17.48;;
62574;SDS011;53112;45.602;11.904;2022-10-22T00:17:31;24.40;;;16.80;;
62574;SDS011;53112;45.602;11.904;2022-10-22T00:19:57;25.00;;;16.63;;
62574;SDS011;53112;45.602;11.904;2022-10-22T00:22:23;22.90;;;16.38;;
62574;SDS011;53112;45.602;11.904;2022-10-22T00:24:49;23.13;;;15.50;;
62574;SDS011;53112;45.602;11.904;2022-10-22T00:27:14;24.85;;;16.17;;
62574;SDS011;53112;45.602;11.904;2022-10-22T00:29:40;23.80;;;16.70;;
62574;SDS011;53112;45.602;11.904;2022-10-22T00:32:07;23.92;;;16.73;;
62574;SDS011;53112;45.602;11.904;2022-10-22T00:34:33;22.85;;;16.10;;
62574;SDS011;53112;45.602;11.904;2022-10-22T00:36:59;23.25;;;15.23;;
62574;SDS011;53112;45.602;11.904;2022-10-22T00:39:25;21.05;;;14.13;;
62574;SDS011;53112;45.602;11.904;2022-10-22T00:41:52;21.83;;;14.98;;
62574;SDS011;53112;45.602;11.904;2022-10-22T00:47:24;24.08;;;14.98;;
62574;SDS011;53112;45.602;11.904;2022-10-22T00:49:53;20.75;;;14.55;;
62574;SDS011;53112;45.602;11.904;2022-10-22T00:52:20;19.05;;;13.80;;
62574;SDS011;53112;45.602;11.904;2022-10-22T00:54:47;21.15;;;14.73;;
62574;SDS011;53112;45.602;11.904;2022-10-22T00:57:15;23.40;;;14.95;;
62574;SDS011;53112;45.602;11.904;2022-10-22T00:59:42;21.48;;;13.88;;
62574;SDS011;53112;45.602;11.904;2022-10-22T01:02:08;20.33;;;13.93;;
62574;SDS011;53112;45.602;11.904;2022-10-22T01:04:40;19.88;;;13.85;;
62574;SDS011;53112;45.602;11.904;2022-10-22T01:09:40;20.92;;;13.70;;
62574;SDS011;53112;45.602;11.904;2022-10-22T01:12:14;21.45;;;13.57;;
62574;SDS011;53112;45.602;11.904;2022-10-22T01:18:00;20.17;;;12.30;;
62574;SDS011;53112;45.602;11.904;2022-10-22T01:20:40;19.30;;;13.55;;
62574;SDS011;53112;45.602;11.904;2022-10-22T01:31:29;24.17;;;14.55;;
62574;SDS011;53112;45.602;11.904;2022-10-22T01:34:00;20.30;;;14.15;;
62574;SDS011;53112;45.602;11.904;2022-10-22T01:36:28;19.05;;;13.25;;
62574;SDS011;53112;45.602;11.904;2022-10-22T01:38:57;18.45;;;13.15;;
62574;SDS011;53112;45.602;11.904;2022-10-22T01:41:26;19.35;;;12.05;;
62574;SDS011;53112;45.602;11.904;2022-10-22T01:43:55;18.10;;;12.63;;
62574;SDS011;53112;45.602;11.904;2022-10-22T01:46:22;18.40;;;13.20;;
62574;SDS011;53112;45.602;11.904;2022-10-22T01:51:45;19.85;;;13.00;;
62574;SDS011;53112;45.602;11.904;2022-10-22T01:54:28;18.63;;;12.63;;
62574;SDS011;53112;45.602;11.904;2022-10-22T01:59:32;17.27;;;12.27;;
62574;SDS011;53112;45.602;11.904;2022-10-22T02:07:35;21.23;;;14.13;;
62574;SDS011;53112;45.602;11.904;2022-10-22T02:10:08;20.27;;;13.43;;
62574;SDS011;53112;45.602;11.904;2022-10-22T02:12:34;19.58;;;12.43;;
62574;SDS011;53112;45.602;11.904;2022-10-22T02:15:03;17.88;;;12.63;;
62574;SDS011;53112;45.602;11.904;2022-10-22T02:17:30;19.75;;;12.57;;
62574;SDS011;53112;45.602;11.904;2022-10-22T02:20:07;20.25;;;13.73;;
62574;SDS011;53112;45.602;11.904;2022-10-22T02:22:42;19.05;;;12.43;;
62574;SDS011;53112;45.602;11.904;2022-10-22T02:25:08;22.63;;;13.75;;
62574;SDS011;53112;45.602;11.904;2022-10-22T02:28:20;21.25;;;13.80;;
62574;SDS011;53112;45.602;11.904;2022-10-22T02:30:40;17.73;;;12.50;;
62574;SDS011;53112;45.602;11.904;2022-10-22T02:33:16;19.65;;;13.65;;
62574;SDS011;53112;45.602;11.904;2022-10-22T02:35:46;19.67;;;13.02;;
62574;SDS011;53112;45.602;11.904;2022-10-22T02:38:13;19.98;;;13.32;;
62574;SDS011;53112;45.602;11.904;2022-10-22T02:40:40;17.67;;;12.52;;
62574;SDS011;53112;45.602;11.904;2022-10-22T02:43:06;18.48;;;12.60;;
62574;SDS011;53112;45.602;11.904;2022-10-22T02:45:32;21.58;;;13.32;;
62574;SDS011;53112;45.602;11.904;2022-10-22T02:47:58;17.98;;;12.60;;
62574;SDS011;53112;45.602;11.904;2022-10-22T02:50:25;19.38;;;12.30;;
62574;SDS011;53112;45.602;11.904;2022-10-22T02:52:51;16.23;;;12.38;;
62574;SDS011;53112;45.602;11.904;2022-10-22T02:55:16;20.83;;;12.45;;
62574;SDS011;53112;45.602;11.904;2022-10-22T02:57:42;19.85;;;12.18;;
62574;SDS011;53112;45.602;11.904;2022-10-22T03:00:08;17.88;;;11.73;;
62574;SDS011;53112;45.602;11.904;2022-10-22T03:02:36;21.48;;;12.45;;
62574;SDS011;53112;45.602;11.904;2022-10-22T03:05:02;17.90;;;11.18;;
62574;SDS011;53112;45.602;11.904;2022-10-22T03:07:29;17.60;;;11.32;;
62574;SDS011;53112;45.602;11.904;2022-10-22T03:09:55;15.93;;;11.05;;
62574;SDS011;53112;45.602;11.904;2022-10-22T03:12:21;15.93;;;10.82;;
62574;SDS011;53112;45.602;11.904;2022-10-22T03:14:47;17.20;;;11.38;;
62574;SDS011;53112;45.602;11.904;2022-10-22T03:17:12;19.50;;;11.60;;
62574;SDS011;53112;45.602;11.904;2022-10-22T03:19:38;16.90;;;10.77;;
62574;SDS011;53112;45.602;11.904;2022-10-22T03:22:06;16.88;;;11.05;;
62574;SDS011;53112;45.602;11.904;2022-10-22T03:24:53;16.35;;;10.55;;
62574;SDS011;53112;45.602;11.904;2022-10-22T03:27:22;15.40;;;10.63;;
62574;SDS011;53112;45.602;11.904;2022-10-22T03:29:50;18.35;;;11.13;;
62574;SDS011;53112;45.602;11.904;2022-10-22T03:32:17;16.85;;;10.80;;
62574;SDS011;53112;45.602;11.904;2022-10-22T03:34:44;18.98;;;11.27;;
62574;SDS011;53112;45.602;11.904;2022-10-22T03:37:10;15.15;;;10.77;;
62574;SDS011;53112;45.602;11.904;2022-10-22T03:39:36;16.92;;;11.13;;
62574;SDS011;53112;45.602;11.904;2022-10-22T03:42:03;18.27;;;11.48;;
62574;SDS011;53112;45.602;11.904;2022-10-22T03:44:30;14.70;;;11.27;;
62574;SDS011;53112;45.602;11.904;2022-10-22T03:46:57;15.80;;;10.90;;
62574;SDS011;53112;45.602;11.904;2022-10-22T03:49:23;17.50;;;11.73;;
62574;SDS011;53112;45.602;11.904;2022-10-22T03:51:49;16.48;;;10.15;;
62574;SDS011;53112;45.602;11.904;2022-10-22T03:54:15;19.65;;;11.35;;
62574;SDS011;53112;45.602;11.904;2022-10-22T03:56:41;15.43;;;11.25;;
62574;SDS011;53112;45.602;11.904;2022-10-22T03:59:07;17.65;;;11.48;;
62574;SDS011;53112;45.602;11.904;2022-10-22T04:01:33;18.58;;;11.20;;
62574;SDS011;53112;45.602;11.904;2022-10-22T04:03:59;16.83;;;11.60;;
62574;SDS011;53112;45.602;11.904;2022-10-22T04:06:24;19.05;;;11.90;;
62574;SDS011;53112;45.602;11.904;2022-10-22T04:08:51;16.65;;;11.05;;
62574;SDS011;53112;45.602;11.904;2022-10-22T04:11:17;16.52;;;11.48;;
62574;SDS011;53112;45.602;11.904;2022-10-22T04:13:43;17.20;;;10.50;;
62574;SDS011;53112;45.602;11.904;2022-10-22T04:16:10;17.58;;;11.63;;
62574;SDS011;53112;45.602;11.904;2022-10-22T04:18:39;15.73;;;11.10;;
62574;SDS011;53112;45.602;11.904;2022-10-22T04:21:07;17.55;;;10.50;;
62574;SDS011;53112;45.602;11.904;2022-10-22T04:23:33;13.05;;;9.60;;
62574;SDS011;53112;45.602;11.904;2022-10-22T04:26:00;19.50;;;12.23;;
62574;SDS011;53112;45.602;11.904;2022-10-22T04:28:28;17.17;;;10.70;;
62574;SDS011;53112;45.602;11.904;2022-10-22T04:30:54;20.10;;;11.70;;
62574;SDS011;53112;45.602;11.904;2022-10-22T04:33:21;19.23;;;11.38;;
62574;SDS011;53112;45.602;11.904;2022-10-22T04:35:47;16.10;;;11.13;;
62574;SDS011;53112;45.602;11.904;2022-10-22T04:38:13;17.17;;;10.77;;
62574;SDS011;53112;45.602;11.904;2022-10-22T04:40:40;16.05;;;10.25;;
62574;SDS011;53112;45.602;11.904;2022-10-22T04:43:06;16.75;;;11.48;;
62574;SDS011;53112;45.602;11.904;2022-10-22T04:45:33;18.98;;;11.20;;
62574;SDS011;53112;45.602;11.904;2022-10-22T04:48:00;16.35;;;9.88;;
62574;SDS011;53112;45.602;11.904;2022-10-22T04:50:26;15.18;;;9.75;;
62574;SDS011;53112;45.602;11.904;2022-10-22T04:52:52;13.55;;;9.65;;
62574;SDS011;53112;45.602;11.904;2022-10-22T04:55:18;16.65;;;10.68;;
62574;SDS011;53112;45.602;11.904;2022-10-22T04:57:44;14.05;;;10.43;;
62574;SDS011;53112;45.602;11.904;2022-10-22T05:00:10;14.50;;;9.48;;
62574;SDS011;53112;45.602;11.904;2022-10-22T05:02:36;18.02;;;10.43;;
62574;SDS011;53112;45.602;11.904;2022-10-22T05:05:08;18.20;;;10.95;;
62574;SDS011;53112;45.602;11.904;2022-10-22T05:07:35;18.02;;;11.18;;
62574;SDS011;53112;45.602;11.904;2022-10-22T05:10:01;16.08;;;10.70;;
62574;SDS011;53112;45.602;11.904;2022-10-22T05:12:27;18.60;;;11.13;;
62574;SDS011;53112;45.602;11.904;2022-10-22T05:14:54;17.33;;;11.13;;
62574;SDS011;53112;45.602;11.904;2022-10-22T05:17:20;17.75;;;11.13;;
62574;SDS011;53112;45.602;11.904;2022-10-22T05:19:46;15.15;;;9.93;;
62574;SDS011;53112;45.602;11.904;2022-10-22T05:22:12;16.92;;;10.43;;
62574;SDS011;53112;45.602;11.904;2022-10-22T05:24:38;17.85;;;9.80;;
62574;SDS011;53112;45.602;11.904;2022-10-22T05:27:04;15.82;;;9.82;;
62574;SDS011;53112;45.602;11.904;2022-10-22T05:29:29;13.88;;;9.48;;
62574;SDS011;53112;45.602;11.904;2022-10-22T05:31:55;14.45;;;10.35;;
62574;SDS011;53112;45.602;11.904;2022-10-22T05:34:21;16.50;;;10.77;;
62574;SDS011;53112;45.602;11.904;2022-10-22T05:36:47;15.90;;;9.90;;
62574;SDS011;53112;45.602;11.904;2022-10-22T05:39:13;15.93;;;11.07;;
62574;SDS011;53112;45.602;11.904;2022-10-22T05:41:38;16.33;;;10.23;;
62574;SDS011;53112;45.602;11.904;2022-10-22T05:44:04;16.95;;;10.82;;
62574;SDS011;53112;45.602;11.904;2022-10-22T05:46:32;15.85;;;10.00;;
62574;SDS011;53112;45.602;11.904;2022-10-22T05:49:00;18.08;;;11.75;;
62574;SDS011;53112;45.602;11.904;2022-10-22T05:51:29;17.45;;;11.52;;
62574;SDS011;53112;45.602;11.904;2022-10-22T05:53:57;15.27;;;10.70;;
62574;SDS011;53112;45.602;11.904;2022-10-22T05:56:25;17.27;;;10.70;;
62574;SDS011;53112;45.602;11.904;2022-10-22T05:58:52;15.52;;;10.63;;
62574;SDS011;53112;45.602;11.904;2022-10-22T06:03:45;18.38;;;10.95;;
62574;SDS011;53112;45.602;11.904;2022-10-22T06:06:17;15.95;;;10.27;;
62574;SDS011;53112;45.602;11.904;2022-10-22T06:08:48;15.15;;;11.05;;
62574;SDS011;53112;45.602;11.904;2022-10-22T06:11:16;20.30;;;11.75;;
62574;SDS011;53112;45.602;11.904;2022-10-22T06:13:44;18.90;;;10.90;;
62574;SDS011;53112;45.602;11.904;2022-10-22T06:16:10;16.33;;;11.13;;
62574;SDS011;53112;45.602;11.904;2022-10-22T06:18:36;17.45;;;11.85;;
62574;SDS011;53112;45.602;11.904;2022-10-22T06:21:05;17.23;;;11.40;;
62574;SDS011;53112;45.602;11.904;2022-10-22T06:23:33;16.88;;;11.63;;
62574;SDS011;53112;45.602;11.904;2022-10-22T06:26:00;18.23;;;12.25;;
62574;SDS011;53112;45.602;11.904;2022-10-22T06:28:26;18.05;;;11.80;;
62574;SDS011;53112;45.602;11.904;2022-10-22T06:30:53;16.17;;;11.32;;
62574;SDS011;53112;45.602;11.904;2022-10-22T06:33:21;19.13;;;13.00;;
62574;SDS011;53112;45.602;11.904;2022-10-22T06:35:47;19.08;;;13.07;;
62574;SDS011;53112;45.602;11.904;2022-10-22T06:38:13;18.23;;;12.60;;
62574;SDS011;53112;45.602;11.904;2022-10-22T06:40:39;19.20;;;13.30;;
62574;SDS011;53112;45.602;11.904;2022-10-22T06:43:08;17.90;;;12.90;;
62574;SDS011;53112;45.602;11.904;2022-10-22T06:45:38;20.27;;;13.13;;
62574;SDS011;53112;45.602;11.904;2022-10-22T06:48:05;19.65;;;11.88;;
62574;SDS011;53112;45.602;11.904;2022-10-22T06:50:32;17.05;;;11.48;;
62574;SDS011;53112;45.602;11.904;2022-10-22T06:52:59;16.38;;;11.57;;
62574;SDS011;53112;45.602;11.904;2022-10-22T06:55:25;18.70;;;11.93;;
62574;SDS011;53112;45.602;11.904;2022-10-22T06:57:51;15.93;;;11.70;;
62574;SDS011;53112;45.602;11.904;2022-10-22T07:00:18;18.08;;;10.90;;
62574;SDS011;53112;45.602;11.904;2022-10-22T07:02:49;14.93;;;10.93;;
62574;SDS011;53112;45.602;11.904;2022-10-22T07:05:17;17.38;;;11.63;;
62574;SDS011;53112;45.602;11.904;2022-10-22T07:07:44;18.75;;;11.93;;
62574;SDS011;53112;45.602;11.904;2022-10-22T07:10:09;16.92;;;11.57;;
62574;SDS011;53112;45.602;11.904;2022-10-22T07:12:35;14.70;;;10.60;;
62574;SDS011;53112;45.602;11.904;2022-10-22T07:15:01;17.85;;;11.25;;
62574;SDS011;53112;45.602;11.904;2022-10-22T07:17:28;15.00;;;10.40;;
62574;SDS011;53112;45.602;11.904;2022-10-22T07:19:53;15.07;;;9.85;;
62574;SDS011;53112;45.602;11.904;2022-10-22T07:22:20;15.35;;;10.52;;
62574;SDS011;53112;45.602;11.904;2022-10-22T07:24:46;17.77;;;10.70;;
62574;SDS011;53112;45.602;11.904;2022-10-22T07:27:11;17.15;;;10.60;;
62574;SDS011;53112;45.602;11.904;2022-10-22T07:29:37;17.00;;;11.30;;
62574;SDS011;53112;45.602;11.904;2022-10-22T07:32:03;15.98;;;10.80;;
62574;SDS011;53112;45.602;11.904;2022-10-22T07:34:29;17.77;;;11.55;;
62574;SDS011;53112;45.602;11.904;2022-10-22T07:36:55;15.48;;;10.73;;
62574;SDS011;53112;45.602;11.904;2022-10-22T07:39:21;17.20;;;12.07;;
62574;SDS011;53112;45.602;11.904;2022-10-22T07:41:50;15.20;;;10.15;;
62574;SDS011;53112;45.602;11.904;2022-10-22T07:44:16;16.30;;;9.90;;
62574;SDS011;53112;45.602;11.904;2022-10-22T07:46:42;12.75;;;9.48;;
62574;SDS011;53112;45.602;11.904;2022-10-22T07:49:08;15.70;;;10.48;;
62574;SDS011;53112;45.602;11.904;2022-10-22T07:51:34;14.20;;;9.88;;
62574;SDS011;53112;45.602;11.904;2022-10-22T07:54:00;16.95;;;10.40;;
62574;SDS011;53112;45.602;11.904;2022-10-22T07:56:26;14.10;;;10.05;;
62574;SDS011;53112;45.602;11.904;2022-10-22T07:58:52;14.95;;;10.07;;
62574;SDS011;53112;45.602;11.904;2022-10-22T08:01:18;16.65;;;10.63;;
62574;SDS011;53112;45.602;11.904;2022-10-22T08:03:44;13.30;;;9.45;;
62574;SDS011;53112;45.602;11.904;2022-10-22T08:06:11;14.48;;;9.70;;
62574;SDS011;53112;45.602;11.904;2022-10-22T08:08:38;18.33;;;10.27;;
62574;SDS011;53112;45.602;11.904;2022-10-22T08:11:04;19.52;;;10.75;;
62574;SDS011;53112;45.602;11.904;2022-10-22T08:13:30;16.02;;;11.05;;
62574;SDS011;53112;45.602;11.904;2022-10-22T08:15:57;14.55;;;9.77;;
62574;SDS011;53112;45.602;11.904;2022-10-22T08:18:24;14.43;;;9.57;;
62574;SDS011;53112;45.602;11.904;2022-10-22T08:20:51;17.80;;;10.20;;
62574;SDS011;53112;45.602;11.904;2022-10-22T08:23:17;14.45;;;9.93;;
62574;SDS011;53112;45.602;11.904;2022-10-22T08:25:44;13.90;;;9.25;;
62574;SDS011;53112;45.602;11.904;2022-10-22T08:28:09;15.60;;;9.65;;
62574;SDS011;53112;45.602;11.904;2022-10-22T08:30:35;13.40;;;9.60;;
62574;SDS011;53112;45.602;11.904;2022-10-22T08:33:03;13.68;;;9.82;;
62574;SDS011;53112;45.602;11.904;2022-10-22T08:35:30;15.55;;;10.05;;
62574;SDS011;53112;45.602;11.904;2022-10-22T08:37:56;17.33;;;10.23;;
62574;SDS011;53112;45.602;11.904;2022-10-22T08:40:25;14.02;;;9.88;;
62574;SDS011;53112;45.602;11.904;2022-10-22T08:43:08;16.55;;;10.15;;
62574;SDS011;53112;45.602;11.904;2022-10-22T08:50:47;14.83;;;9.33;;
62574;SDS011;53112;45.602;11.904;2022-10-22T08:53:18;13.77;;;9.27;;
62574;SDS011;53112;45.602;11.904;2022-10-22T08:55:47;14.20;;;9.32;;
62574;SDS011;53112;45.602;11.904;2022-10-22T08:58:28;13.27;;;9.40;;
62574;SDS011;53112;45.602;11.904;2022-10-22T09:01:05;14.80;;;9.77;;
62574;SDS011;53112;45.602;11.904;2022-10-22T09:03:44;14.45;;;9.35;;
62574;SDS011;53112;45.602;11.904;2022-10-22T09:06:25;19.35;;;9.60;;
62574;SDS011;53112;45.602;11.904;2022-10-22T09:08:53;18.00;;;9.27;;
62574;SDS011;53112;45.602;11.904;2022-10-22T09:11:28;13.38;;;9.32;;
62574;SDS011;53112;45.602;11.904;2022-10-22T09:14:05;14.27;;;9.63;;
62574;SDS011;53112;45.602;11.904;2022-10-22T09:19:19;14.65;;;9.32;;
62574;SDS011;53112;45.602;11.904;2022-10-22T09:22:07;13.00;;;8.65;;
62574;SDS011;53112;45.602;11.904;2022-10-22T09:24:43;15.43;;;9.07;;
62574;SDS011;53112;45.602;11.904;2022-10-22T09:27:13;13.60;;;8.90;;
62574;SDS011;53112;45.602;11.904;2022-10-22T09:29:50;12.73;;;9.32;;
62574;SDS011;53112;45.602;11.904;2022-10-22T09:32:16;15.15;;;9.10;;
62574;SDS011;53112;45.602;11.904;2022-10-22T09:34:44;12.57;;;8.60;;
62574;SDS011;53112;45.602;11.904;2022-10-22T09:37:11;14.27;;;8.98;;
62574;SDS011;53112;45.602;11.904;2022-10-22T09:39:43;14.07;;;9.15;;
62574;SDS011;53112;45.602;11.904;2022-10-22T09:42:13;14.48;;;9.65;;
62574;SDS011;53112;45.602;11.904;2022-10-22T09:44:40;13.95;;;8.75;;
62574;SDS011;53112;45.602;11.904;2022-10-22T09:52:34;18.58;;;10.50;;
62574;SDS011;53112;45.602;11.904;2022-10-22T09:55:01;14.00;;;9.38;;
62574;SDS011;53112;45.602;11.904;2022-10-22T09:57:37;14.32;;;8.75;;
62574;SDS011;53112;45.602;11.904;2022-10-22T10:00:06;12.57;;;9.10;;
62574;SDS011;53112;45.602;11.904;2022-10-22T10:02:34;16.17;;;10.35;;
62574;SDS011;53112;45.602;11.904;2022-10-22T10:05:16;18.15;;;10.73;;
62574;SDS011;53112;45.602;11.904;2022-10-22T10:07:44;17.50;;;9.07;;
62574;SDS011;53112;45.602;11.904;2022-10-22T10:10:16;14.73;;;10.60;;
62574;SDS011;53112;45.602;11.904;2022-10-22T10:13:00;14.90;;;9.90;;
62574;SDS011;53112;45.602;11.904;2022-10-22T10:15:44;15.13;;;9.82;;
62574;SDS011;53112;45.602;11.904;2022-10-22T10:27:38;13.90;;;9.13;;
62574;SDS011;53112;45.602;11.904;2022-10-22T10:30:14;13.85;;;9.30;;
62574;SDS011;53112;45.602;11.904;2022-10-22T10:35:25;15.30;;;9.00;;
62574;SDS011;53112;45.602;11.904;2022-10-22T10:40:49;15.23;;;8.65;;
62574;SDS011;53112;45.602;11.904;2022-10-22T10:46:06;13.23;;;9.40;;
62574;SDS011;53112;45.602;11.904;2022-10-22T10:49:00;12.88;;;8.32;;
62574;SDS011;53112;45.602;11.904;2022-10-22T10:54:57;12.90;;;7.82;;
62574;SDS011;53112;45.602;11.904;2022-10-22T11:00:18;14.27;;;7.90;;
62574;SDS011;53112;45.602;11.904;2022-10-22T11:05:31;9.48;;;6.45;;
62574;SDS011;53112;45.602;11.904;2022-10-22T11:10:51;9.98;;;6.47;;
62574;SDS011;53112;45.602;11.904;2022-10-22T11:21:44;14.18;;;8.98;;
62574;SDS011;53112;45.602;11.904;2022-10-22T11:24:19;13.23;;;9.10;;
62574;SDS011;53112;45.602;11.904;2022-10-22T11:27:00;12.20;;;8.35;;
62574;SDS011;53112;45.602;11.904;2022-10-22T11:29:27;13.60;;;8.50;;
62574;SDS011;53112;45.602;11.904;2022-10-22T11:31:58;11.25;;;8.07;;
62574;SDS011;53112;45.602;11.904;2022-10-22T11:34:27;11.70;;;7.22;;
62574;SDS011;53112;45.602;11.904;2022-10-22T11:36:58;11.55;;;7.47;;
62574;SDS011;53112;45.602;11.904;2022-10-22T11:39:49;11.13;;;7.53;;
62574;SDS011;53112;45.602;11.904;2022-10-22T11:42:20;14.35;;;8.98;;
62574;SDS011;53112;45.602;11.904;2022-10-22T11:50:53;14.35;;;8.95;;
62574;SDS011;53112;45.602;11.904;2022-10-22T11:53:27;13.05;;;8.88;;
62574;SDS011;53112;45.602;11.904;2022-10-22T12:06:20;14.43;;;9.70;;
62574;SDS011;53112;45.602;11.904;2022-10-22T12:16:55;13.57;;;8.98;;
62574;SDS011;53112;45.602;11.904;2022-10-22T12:19:24;15.10;;;10.20;;
62574;SDS011;53112;45.602;11.904;2022-10-22T12:22:10;12.50;;;9.52;;
62574;SDS011;53112;45.602;11.904;2022-10-22T12:25:17;12.65;;;8.88;;
62574;SDS011;53112;45.602;11.904;2022-10-22T12:27:53;13.73;;;8.43;;
62574;SDS011;53112;45.602;11.904;2022-10-22T12:32:53;12.38;;;8.43;;
62574;SDS011;53112;45.602;11.904;2022-10-22T12:35:28;13.00;;;8.88;;
62574;SDS011;53112;45.602;11.904;2022-10-22T12:37:57;16.33;;;9.15;;
62574;SDS011;53112;45.602;11.904;2022-10-22T12:40:28;11.20;;;8.63;;
62574;SDS011;53112;45.602;11.904;2022-10-22T12:42:58;11.07;;;7.57;;
62574;SDS011;53112;45.602;11.904;2022-10-22T12:45:27;13.38;;;7.50;;
62574;SDS011;53112;45.602;11.904;2022-10-22T12:47:59;12.00;;;6.80;;
62574;SDS011;53112;45.602;11.904;2022-10-22T12:50:38;9.82;;;7.22;;
62574;SDS011;53112;45.602;11.904;2022-10-22T12:53:23;10.40;;;6.82;;
62574;SDS011;53112;45.602;11.904;2022-10-22T12:55:55;11.57;;;7.75;;
62574;SDS011;53112;45.602;11.904;2022-10-22T12:58:29;11.77;;;7.90;;
62574;SDS011;53112;45.602;11.904;2022-10-22T13:01:05;10.60;;;6.93;;
62574;SDS011;53112;45.602;11.904;2022-10-22T13:03:34;11.30;;;6.70;;
62574;SDS011;53112;45.602;11.904;2022-10-22T13:06:21;10.18;;;6.65;;
62574;SDS011;53112;45.602;11.904;2022-10-22T13:11:46;10.32;;;7.20;;
62574;SDS011;53112;45.602;11.904;2022-10-22T13:14:28;10.10;;;7.22;;
62574;SDS011;53112;45.602;11.904;2022-10-22T13:19:48;10.77;;;7.38;;
62574;SDS011;53112;45.602;11.904;2022-10-22T13:22:22;13.73;;;7.93;;
62574;SDS011;53112;45.602;11.904;2022-10-22T13:24:56;11.63;;;7.63;;
62574;SDS011;53112;45.602;11.904;2022-10-22T13:27:25;12.70;;;8.20;;
62574;SDS011;53112;45.602;11.904;2022-10-22T13:29:52;12.60;;;8.07;;
62574;SDS011;53112;45.602;11.904;2022-10-22T13:34:53;15.15;;;9.13;;
62574;SDS011;53112;45.602;11.904;2022-10-22T13:37:21;14.48;;;9.30;;
62574;SDS011;53112;45.602;11.904;2022-10-22T13:39:47;14.75;;;9.63;;
62574;SDS011;53112;45.602;11.904;2022-10-22T13:42:13;16.23;;;9.50;;
62574;SDS011;53112;45.602;11.904;2022-10-22T13:44:38;16.70;;;10.05;;
62574;SDS011;53112;45.602;11.904;2022-10-22T13:47:09;15.63;;;10.60;;
62574;SDS011;53112;45.602;11.904;2022-10-22T13:49:52;14.55;;;9.57;;
62574;SDS011;53112;45.602;11.904;2022-10-22T13:52:39;12.52;;;7.40;;
62574;SDS011;53112;45.602;11.904;2022-10-22T13:55:17;10.35;;;6.88;;
62574;SDS011;53112;45.602;11.904;2022-10-22T13:57:46;9.98;;;6.20;;
62574;SDS011;53112;45.602;11.904;2022-10-22T14:00:13;8.85;;;6.05;;
62574;SDS011;53112;45.602;11.904;2022-10-22T14:02:42;9.00;;;6.00;;
62574;SDS011;53112;45.602;11.904;2022-10-22T14:05:09;7.72;;;5.32;;
62574;SDS011;53112;45.602;11.904;2022-10-22T14:07:36;7.68;;;5.18;;
62574;SDS011;53112;45.602;11.904;2022-10-22T14:10:13;7.28;;;5.10;;
62574;SDS011;53112;45.602;11.904;2022-10-22T14:12:41;7.68;;;5.00;;
62574;SDS011;53112;45.602;11.904;2022-10-22T14:15:08;7.10;;;4.60;;
62574;SDS011;53112;45.602;11.904;2022-10-22T14:17:37;6.55;;;4.10;;
62574;SDS011;53112;45.602;11.904;2022-10-22T14:20:04;7.15;;;4.20;;
62574;SDS011;53112;45.602;11.904;2022-10-22T14:22:31;8.25;;;4.20;;
62574;SDS011;53112;45.602;11.904;2022-10-22T14:24:57;6.22;;;4.57;;
62574;SDS011;53112;45.602;11.904;2022-10-22T14:27:23;6.32;;;4.43;;
62574;SDS011;53112;45.602;11.904;2022-10-22T14:29:49;6.20;;;4.18;;
62574;SDS011;53112;45.602;11.904;2022-10-22T14:32:16;7.43;;;4.10;;
62574;SDS011;53112;45.602;11.904;2022-10-22T14:34:46;6.43;;;4.13;;
62574;SDS011;53112;45.602;11.904;2022-10-22T14:37:14;6.85;;;3.80;;
62574;SDS011;53112;45.602;11.904;2022-10-22T14:39:42;5.75;;;2.97;;
62574;SDS011;53112;45.602;11.904;2022-10-22T14:42:11;5.47;;;3.20;;
62574;SDS011;53112;45.602;11.904;2022-10-22T14:44:39;5.43;;;3.20;;
62574;SDS011;53112;45.602;11.904;2022-10-22T14:47:05;4.80;;;2.95;;
62574;SDS011;53112;45.602;11.904;2022-10-22T14:49:31;3.35;;;2.53;;
62574;SDS011;53112;45.602;11.904;2022-10-22T14:51:57;3.97;;;2.60;;
62574;SDS011;53112;45.602;11.904;2022-10-22T14:54:23;3.85;;;2.40;;
62574;SDS011;53112;45.602;11.904;2022-10-22T14:56:49;2.92;;;2.40;;
62574;SDS011;53112;45.602;11.904;2022-10-22T14:59:15;4.07;;;2.60;;
62574;SDS011;53112;45.602;11.904;2022-10-22T15:01:41;3.42;;;2.40;;
62574;SDS011;53112;45.602;11.904;2022-10-22T15:04:07;2.72;;;2.38;;
62574;SDS011;53112;45.602;11.904;2022-10-22T15:06:33;3.88;;;2.58;;
62574;SDS011;53112;45.602;11.904;2022-10-22T15:09:00;4.35;;;2.50;;
62574;SDS011;53112;45.602;11.904;2022-10-22T15:11:26;2.85;;;2.30;;
62574;SDS011;53112;45.602;11.904;2022-10-22T15:13:52;3.45;;;2.53;;
62574;SDS011;53112;45.602;11.904;2022-10-22T15:16:18;3.28;;;2.40;;
62574;SDS011;53112;45.602;11.904;2022-10-22T15:18:44;3.88;;;2.45;;
62574;SDS011;53112;45.602;11.904;2022-10-22T15:21:14;4.05;;;2.50;;
62574;SDS011;53112;45.602;11.904;2022-10-22T15:23:41;3.60;;;2.55;;
62574;SDS011;53112;45.602;11.904;2022-10-22T15:26:08;3.25;;;2.30;;
62574;SDS011;53112;45.602;11.904;2022-10-22T15:28:36;3.33;;;2.47;;
62574;SDS011;53112;45.602;11.904;2022-10-22T15:31:04;3.80;;;2.28;;
62574;SDS011;53112;45.602;11.904;2022-10-22T15:33:31;3.90;;;2.38;;
62574;SDS011;53112;45.602;11.904;2022-10-22T15:35:57;3.92;;;2.30;;
62574;SDS011;53112;45.602;11.904;2022-10-22T15:38:31;2.80;;;2.33;;
62574;SDS011;53112;45.602;11.904;2022-10-22T15:41:00;3.10;;;2.30;;
62574;SDS011;53112;45.602;11.904;2022-10-22T15:43:30;3.95;;;2.20;;
62574;SDS011;53112;45.602;11.904;2022-10-22T15:46:09;3.85;;;2.20;;
62574;SDS011;53112;45.602;11.904;2022-10-22T15:51:11;2.83;;;2.20;;
62574;SDS011;53112;45.602;11.904;2022-10-22T15:53:42;5.15;;;3.00;;
62574;SDS011;53112;45.602;11.904;2022-10-22T15:56:08;3.30;;;2.60;;
62574;SDS011;53112;45.602;11.904;2022-10-22T15:58:36;3.63;;;2.55;;
62574;SDS011;53112;45.602;11.904;2022-10-22T16:01:02;3.75;;;2.60;;
62574;SDS011;53112;45.602;11.904;2022-10-22T16:03:32;3.83;;;2.40;;
62574;SDS011;53112;45.602;11.904;2022-10-22T16:05:59;4.47;;;2.60;;
62574;SDS011;53112;45.602;11.904;2022-10-22T16:08:25;3.22;;;2.45;;
62574;SDS011;53112;45.602;11.904;2022-10-22T16:10:51;5.75;;;2.70;;
62574;SDS011;53112;45.602;11.904;2022-10-22T16:13:18;4.00;;;2.78;;
62574;SDS011;53112;45.602;11.904;2022-10-22T16:15:46;5.60;;;3.10;;
62574;SDS011;53112;45.602;11.904;2022-10-22T16:18:12;5.25;;;3.33;;
62574;SDS011;53112;45.602;11.904;2022-10-22T16:20:38;4.47;;;3.17;;
62574;SDS011;53112;45.602;11.904;2022-10-22T16:23:05;4.40;;;3.10;;
62574;SDS011;53112;45.602;11.904;2022-10-22T16:25:40;5.82;;;3.33;;